Time;durP1;ratioP1;P1;durP2;ratioP2;P2;SDS_P1;SDS_P2;PMS_P1;PMS_P2;Temp;Humidity;BMP_temperature;BMP_pressure;BME280_temperature;BME280_humidity;BME280_pressure;Samples;Min_cycle;Max_cycle;Signal;HPM_P1;HPM_P2
2023/03/16 00:01:05;;;;;;;50.60;14.40;;;;;;;;;;4916569;29;20049;-77
2023/03/16 00:03:39;;;;;;;58.95;16.25;;;;;;;;;;4917245;29;20055;-78
2023/03/16 00:06:07;;;;;;;69.82;15.48;;;;;;;;;;4917346;29;20502;-77
2023/03/16 00:08:44;;;;;;;58.00;16.70;;;;;;;;;;4917479;29;20052;-78
2023/03/16 00:11:12;;;;;;;46.42;16.08;;;;;;;;;;4917545;29;20048;-78
2023/03/16 00:13:39;;;;;;;52.75;14.30;;;;;;;;;;4918394;29;20052;-78
2023/03/16 00:16:06;;;;;;;41.70;13.73;;;;;;;;;;4906280;29;20052;-78
2023/03/16 00:18:37;;;;;;;57.92;14.48;;;;;;;;;;4924005;29;20044;-78
2023/03/16 00:21:06;;;;;;;65.20;14.52;;;;;;;;;;4922511;29;20055;-78
2023/03/16 00:23:34;;;;;;;57.05;15.07;;;;;;;;;;4958541;23;20044;-78
2023/03/16 00:26:05;;;;;;;79.70;16.42;;;;;;;;;;4934797;29;20048;-79
2023/03/16 00:28:34;;;;;;;47.85;14.52;;;;;;;;;;4919163;29;20054;-78
2023/03/16 00:31:02;;;;;;;56.28;14.68;;;;;;;;;;4946674;29;20058;-79
2023/03/16 00:33:29;;;;;;;46.88;12.68;;;;;;;;;;4918777;29;20405;-79
2023/03/16 00:36:02;;;;;;;32.97;12.73;;;;;;;;;;4934323;29;20058;-79
2023/03/16 00:38:36;;;;;;;29.27;13.05;;;;;;;;;;4937539;29;20394;-79
2023/03/16 00:41:08;;;;;;;54.17;12.93;;;;;;;;;;4927535;29;20387;-79
2023/03/16 00:43:39;;;;;;;34.30;13.93;;;;;;;;;;4919933;29;20074;-79
2023/03/16 00:46:07;;;;;;;44.30;13.55;;;;;;;;;;4919335;29;20051;-79
2023/03/16 00:48:35;;;;;;;38.70;15.43;;;;;;;;;;4934381;29;20059;-79
2023/03/16 00:51:03;;;;;;;58.53;13.43;;;;;;;;;;4934482;29;20059;-79
2023/03/16 00:53:33;;;;;;;41.85;12.00;;;;;;;;;;4950042;29;20066;-79
2023/03/16 00:56:03;;;;;;;57.42;14.88;;;;;;;;;;4935615;29;20055;-78
2023/03/16 00:58:34;;;;;;;59.05;12.32;;;;;;;;;;4934417;29;20062;-79
2023/03/16 01:01:02;;;;;;;48.10;13.80;;;;;;;;;;4918649;29;20067;-79
2023/03/16 01:03:29;;;;;;;50.88;14.35;;;;;;;;;;4949812;29;20505;-79
2023/03/16 01:05:58;;;;;;;38.67;13.38;;;;;;;;;;4934120;29;20079;-79
2023/03/16 01:08:27;;;;;;;40.70;12.60;;;;;;;;;;4935501;29;20055;-79
2023/03/16 01:11:00;;;;;;;28.25;12.80;;;;;;;;;;4921442;29;20062;-79
2023/03/16 01:13:31;;;;;;;83.97;16.67;;;;;;;;;;4940797;29;20054;-79
2023/03/16 01:16:06;;;;;;;57.15;20.27;;;;;;;;;;4913048;29;20056;-79
2023/03/16 01:18:36;;;;;;;34.40;13.35;;;;;;;;;;4940394;29;20055;-79
2023/03/16 01:21:05;;;;;;;61.53;16.98;;;;;;;;;;4924762;29;20059;-79
2023/03/16 01:23:57;;;;;;;78.30;20.90;;;;;;;;;;4942171;28;20537;-79
2023/03/16 01:26:24;;;;;;;84.15;16.13;;;;;;;;;;4949315;28;20063;-79
2023/03/16 01:28:53;;;;;;;47.35;17.40;;;;;;;;;;4916937;29;20067;-79
2023/03/16 01:31:20;;;;;;;89.70;23.27;;;;;;;;;;4933774;29;20648;-79
2023/03/16 01:33:48;;;;;;;75.97;20.98;;;;;;;;;;4929464;29;20047;-79
2023/03/16 01:36:20;;;;;;;99.88;21.60;;;;;;;;;;4932978;29;20048;-79
2023/03/16 01:39:15;;;;;;;57.38;19.20;;;;;;;;;;4933569;29;20417;-79
2023/03/16 01:41:48;;;;;;;;;;;;;;;;;;4949092;29;20066;-79
2023/03/16 01:44:23;;;;;;;55.88;15.55;;;;;;;;;;4934166;29;19930;-79
2023/03/16 01:46:52;;;;;;;75.63;17.92;;;;;;;;;;4933499;29;20055;-79
2023/03/16 01:49:24;;;;;;;62.72;19.65;;;;;;;;;;4949452;28;20519;-79
2023/03/16 01:51:53;;;;;;;42.47;15.90;;;;;;;;;;4926685;29;20059;-79
2023/03/16 01:54:27;;;;;;;59.08;19.40;;;;;;;;;;4932699;29;20059;-79
2023/03/16 01:57:00;;;;;;;74.45;19.02;;;;;;;;;;4932639;29;20059;-79
2023/03/16 01:59:32;;;;;;;47.65;17.05;;;;;;;;;;4932490;29;20064;-79
2023/03/16 02:02:02;;;;;;;52.92;17.33;;;;;;;;;;4932219;29;20052;-79
2023/03/16 02:04:38;;;;;;;39.00;16.23;;;;;;;;;;4932622;29;20056;-79
2023/03/16 02:07:06;;;;;;;41.17;18.23;;;;;;;;;;4931758;29;20524;-79
2023/03/16 02:09:36;;;;;;;56.75;16.90;;;;;;;;;;4932279;29;20056;-79
2023/03/16 02:12:03;;;;;;;85.07;21.67;;;;;;;;;;4932051;29;20501;-79
2023/03/16 02:14:36;;;;;;;33.78;13.55;;;;;;;;;;4931940;29;20434;-79
2023/03/16 02:17:03;;;;;;;53.83;17.80;;;;;;;;;;4916375;29;20052;-79
2023/03/16 02:19:46;;;;;;;36.28;13.30;;;;;;;;;;4932140;29;20051;-79
2023/03/16 02:22:16;;;;;;;71.75;23.05;;;;;;;;;;4931909;29;20055;-79
2023/03/16 02:24:46;;;;;;;67.25;18.20;;;;;;;;;;4932109;29;20044;-79
2023/03/16 02:27:20;;;;;;;61.95;17.17;;;;;;;;;;4925704;29;20051;-79
2023/03/16 02:29:58;;;;;;;51.80;16.17;;;;;;;;;;4946550;29;20044;-79
2023/03/16 02:32:29;;;;;;;69.30;15.95;;;;;;;;;;4935658;29;20059;-79
2023/03/16 02:35:05;;;;;;;50.25;16.50;;;;;;;;;;4936217;29;20044;-79
2023/03/16 02:37:33;;;;;;;46.08;15.15;;;;;;;;;;4951315;29;20051;-79
2023/03/16 02:40:17;;;;;;;44.42;13.93;;;;;;;;;;4936225;29;20055;-79
2023/03/16 02:42:55;;;;;;;50.40;18.40;;;;;;;;;;4935824;29;20071;-79
2023/03/16 02:45:26;;;;;;;66.60;21.65;;;;;;;;;;4935800;29;20082;-79
2023/03/16 02:47:55;;;;;;;39.72;14.63;;;;;;;;;;4935716;29;20055;-79
2023/03/16 02:50:22;;;;;;;30.65;12.88;;;;;;;;;;4935074;29;20051;-79
2023/03/16 02:52:49;;;;;;;52.97;16.90;;;;;;;;;;4934289;29;20387;-79
2023/03/16 02:55:17;;;;;;;31.85;13.93;;;;;;;;;;4940873;29;20050;-79
2023/03/16 02:57:45;;;;;;;31.42;14.80;;;;;;;;;;4934439;29;20051;-79
2023/03/16 03:00:17;;;;;;;21.98;11.30;;;;;;;;;;4937489;29;20066;-79
2023/03/16 03:02:51;;;;;;;21.52;11.93;;;;;;;;;;4934423;29;20052;-79
2023/03/16 03:05:18;;;;;;;20.55;10.68;;;;;;;;;;4918427;29;20449;-79
2023/03/16 03:07:45;;;;;;;16.45;10.10;;;;;;;;;;4935155;29;20059;-79
2023/03/16 03:10:13;;;;;;;23.65;12.05;;;;;;;;;;4919614;29;20058;-79
2023/03/16 03:12:41;;;;;;;25.10;11.07;;;;;;;;;;4935025;29;20063;-79
2023/03/16 03:15:10;;;;;;;21.65;10.73;;;;;;;;;;4932810;29;20051;-79
2023/03/16 03:17:49;;;;;;;45.78;13.18;;;;;;;;;;4948131;29;20062;-79
2023/03/16 03:20:18;;;;;;;29.45;14.63;;;;;;;;;;4935340;29;20053;-79
2023/03/16 03:22:58;;;;;;;28.15;13.00;;;;;;;;;;4936326;29;20059;-79
2023/03/16 03:25:25;;;;;;;36.70;15.95;;;;;;;;;;4936279;29;20422;-79
2023/03/16 03:27:55;;;;;;;16.92;12.30;;;;;;;;;;4935080;29;20066;-79
2023/03/16 03:30:25;;;;;;;37.55;13.20;;;;;;;;;;4928754;29;20048;-79
2023/03/16 03:32:52;;;;;;;41.10;14.52;;;;;;;;;;4929607;29;20614;-79
2023/03/16 03:35:24;;;;;;;24.75;12.70;;;;;;;;;;4918144;29;20062;-79
2023/03/16 03:37:53;;;;;;;29.55;15.27;;;;;;;;;;4934913;29;20063;-79
2023/03/16 03:40:21;;;;;;;20.98;10.43;;;;;;;;;;4934919;29;20119;-79
2023/03/16 03:42:55;;;;;;;28.08;14.32;;;;;;;;;;4934771;29;20051;-79
2023/03/16 03:45:23;;;;;;;36.50;12.23;;;;;;;;;;4934643;29;20060;-79
2023/03/16 03:47:53;;;;;;;21.73;10.43;;;;;;;;;;4934817;29;20050;-79
2023/03/16 03:50:25;;;;;;;21.75;11.98;;;;;;;;;;4934533;29;20059;-79
2023/03/16 03:53:19;;;;;;;15.30;10.10;;;;;;;;;;4933803;29;20074;-79
2023/03/16 03:56:06;;;;;;;23.52;12.63;;;;;;;;;;4922788;29;20046;-79
2023/03/16 03:58:34;;;;;;;30.77;9.65;;;;;;;;;;4934554;29;20051;-79
2023/03/16 04:01:04;;;;;;;41.75;11.32;;;;;;;;;;4918646;29;20058;-79
2023/03/16 04:03:32;;;;;;;21.88;11.93;;;;;;;;;;4934222;29;20052;-79
2023/03/16 04:06:01;;;;;;;26.40;12.88;;;;;;;;;;4933552;29;20062;-79
2023/03/16 04:08:30;;;;;;;46.38;14.98;;;;;;;;;;4934819;29;20062;-79
2023/03/16 04:10:57;;;;;;;36.83;12.25;;;;;;;;;;4933202;29;20051;-79
2023/03/16 04:13:24;;;;;;;67.85;16.65;;;;;;;;;;4935713;29;20371;-79
2023/03/16 04:15:56;;;;;;;35.05;15.55;;;;;;;;;;4934289;29;20051;-79
2023/03/16 04:18:27;;;;;;;19.77;12.63;;;;;;;;;;4934073;29;20051;-79
2023/03/16 04:20:54;;;;;;;82.63;26.52;;;;;;;;;;4934194;29;20482;-79
2023/03/16 04:23:25;;;;;;;15.50;10.45;;;;;;;;;;4931804;29;20048;-79
2023/03/16 04:25:56;;;;;;;29.48;10.63;;;;;;;;;;4934217;29;20494;-79
2023/03/16 04:28:26;;;;;;;56.67;14.67;;;;;;;;;;4933588;29;20071;-79
2023/03/16 04:30:53;;;;;;;19.45;11.85;;;;;;;;;;4918081;29;20797;-79
2023/03/16 04:33:34;;;;;;;72.20;17.48;;;;;;;;;;4933716;29;20075;-79
2023/03/16 04:36:02;;;;;;;61.33;16.48;;;;;;;;;;4931834;29;20059;-79
2023/03/16 04:38:32;;;;;;;39.28;14.80;;;;;;;;;;4943609;29;20040;-79
2023/03/16 04:41:03;;;;;;;;;;;;;;;;;;4923607;29;20055;-79
2023/03/16 04:43:34;;;;;;;27.38;11.93;;;;;;;;;;4916905;29;20411;-79
2023/03/16 04:46:08;;;;;;;31.55;12.52;;;;;;;;;;4949616;29;20050;-79
2023/03/16 04:48:36;;;;;;;67.50;16.08;;;;;;;;;;4932906;29;20052;-79
2023/03/16 04:51:06;;;;;;;20.08;10.38;;;;;;;;;;4931873;29;20075;-79
2023/03/16 04:53:39;;;;;;;23.10;11.50;;;;;;;;;;4948933;29;20051;-79
2023/03/16 04:56:18;;;;;;;36.33;13.82;;;;;;;;;;4933617;29;20047;-78
2023/03/16 04:58:48;;;;;;;54.45;12.13;;;;;;;;;;4936560;29;20056;-79
2023/03/16 05:01:18;;;;;;;33.05;10.10;;;;;;;;;;4933757;29;20177;-79
2023/03/16 05:03:54;;;;;;;54.17;17.48;;;;;;;;;;4933129;29;20513;-79
2023/03/16 05:06:24;;;;;;;44.23;13.87;;;;;;;;;;4933504;29;20525;-79
2023/03/16 05:09:00;;;;;;;77.88;23.15;;;;;;;;;;4933332;29;20055;-79
2023/03/16 05:11:32;;;;;;;110.28;27.75;;;;;;;;;;4939503;29;20066;-79
2023/03/16 05:14:03;;;;;;;177.35;34.38;;;;;;;;;;4905105;29;20052;-79
2023/03/16 05:16:33;;;;;;;131.63;32.95;;;;;;;;;;4951488;28;20051;-79
2023/03/16 05:19:03;;;;;;;156.70;29.08;;;;;;;;;;4943771;29;20058;-79
2023/03/16 05:21:36;;;;;;;106.90;18.30;;;;;;;;;;4932945;29;20067;-79
2023/03/16 05:24:07;;;;;;;92.63;20.70;;;;;;;;;;4932883;29;20040;-79
2023/03/16 05:26:36;;;;;;;120.30;20.95;;;;;;;;;;4933023;29;20055;-79
2023/03/16 05:29:08;;;;;;;149.27;27.05;;;;;;;;;;4932827;29;20055;-79
2023/03/16 05:31:37;;;;;;;86.32;19.15;;;;;;;;;;4929765;29;20058;-79
2023/03/16 05:34:12;;;;;;;180.25;38.97;;;;;;;;;;4932579;29;20257;-79
2023/03/16 05:36:39;;;;;;;139.70;26.58;;;;;;;;;;4932603;29;20046;-79
2023/03/16 05:39:15;;;;;;;61.42;14.40;;;;;;;;;;4932828;29;20055;-79
2023/03/16 05:41:48;;;;;;;105.70;23.13;;;;;;;;;;4932827;29;20063;-79
2023/03/16 05:44:24;;;;;;;96.05;23.25;;;;;;;;;;4932740;29;20071;-79
2023/03/16 05:47:12;;;;;;;57.03;14.63;;;;;;;;;;4932705;29;20062;-79
2023/03/16 05:49:44;;;;;;;76.43;20.33;;;;;;;;;;4921784;29;20054;-79
2023/03/16 05:52:24;;;;;;;87.10;23.00;;;;;;;;;;4932741;29;20426;-79
2023/03/16 05:54:53;;;;;;;115.63;26.10;;;;;;;;;;4932499;29;20048;-79
2023/03/16 05:57:20;;;;;;;102.97;21.52;;;;;;;;;;4932609;29;20055;-79
2023/03/16 05:59:51;;;;;;;166.60;23.77;;;;;;;;;;4932569;29;20052;-79
2023/03/16 06:02:19;;;;;;;106.50;21.85;;;;;;;;;;4932363;29;20048;-79
2023/03/16 06:04:46;;;;;;;161.90;28.98;;;;;;;;;;4932179;29;20058;-79
2023/03/16 06:07:14;;;;;;;175.32;29.73;;;;;;;;;;4933421;29;20068;-79
2023/03/16 06:09:41;;;;;;;76.35;16.80;;;;;;;;;;4923627;29;20074;-79
2023/03/16 06:12:15;;;;;;;40.70;14.35;;;;;;;;;;4932052;29;20062;-79
2023/03/16 06:14:47;;;;;;;;;;;;;;;;;;4932002;29;20117;-79
2023/03/16 06:17:15;;;;;;;70.68;31.05;;;;;;;;;;4947422;28;19941;-79
2023/03/16 06:19:43;;;;;;;68.78;31.17;;;;;;;;;;4928506;29;20052;-79
2023/03/16 06:22:12;;;;;;;97.65;44.80;;;;;;;;;;4930751;29;20058;-79
2023/03/16 06:24:40;;;;;;;69.30;17.05;;;;;;;;;;4946693;28;20063;-79
2023/03/16 06:27:09;;;;;;;37.38;12.40;;;;;;;;;;4934201;29;20055;-79
2023/03/16 06:29:51;;;;;;;72.35;13.52;;;;;;;;;;4933590;29;20059;-79
2023/03/16 06:32:20;;;;;;;19.40;10.63;;;;;;;;;;4947660;29;20059;-79
2023/03/16 06:34:48;;;;;;;13.00;8.20;;;;;;;;;;4931786;29;20056;-79
2023/03/16 06:37:15;;;;;;;9.77;8.77;;;;;;;;;;4948130;29;20476;-79
2023/03/16 06:39:43;;;;;;;9.40;8.27;;;;;;;;;;4927931;29;20044;-79
2023/03/16 06:42:10;;;;;;;10.40;8.80;;;;;;;;;;4932215;29;20387;-79
2023/03/16 06:44:41;;;;;;;14.07;8.98;;;;;;;;;;4931925;29;20411;-79
2023/03/16 06:47:13;;;;;;;28.50;8.95;;;;;;;;;;4930384;29;20440;-79
2023/03/16 06:49:43;;;;;;;9.27;7.85;;;;;;;;;;4948620;28;20058;-79
2023/03/16 06:52:17;;;;;;;13.32;9.35;;;;;;;;;;4933398;29;20054;-79
2023/03/16 06:54:44;;;;;;;10.40;7.80;;;;;;;;;;4950718;29;20520;-79
2023/03/16 06:57:12;;;;;;;11.07;9.52;;;;;;;;;;4943017;29;20047;-79
2023/03/16 06:59:40;;;;;;;10.35;7.25;;;;;;;;;;4922721;29;20066;-80
2023/03/16 07:02:10;;;;;;;9.02;7.75;;;;;;;;;;4932193;29;20047;-80
2023/03/16 07:04:41;;;;;;;9.63;7.25;;;;;;;;;;4940815;29;20382;-80
2023/03/16 07:07:10;;;;;;;10.25;7.32;;;;;;;;;;4915673;29;20055;-79
2023/03/16 07:09:38;;;;;;;11.05;7.45;;;;;;;;;;4929845;29;20505;-79
2023/03/16 07:12:06;;;;;;;6.18;5.53;;;;;;;;;;4931551;29;20333;-79
2023/03/16 07:14:33;;;;;;;9.18;7.05;;;;;;;;;;4946858;28;20051;-79
2023/03/16 07:17:03;;;;;;;8.57;6.88;;;;;;;;;;4939725;29;20394;-80
2023/03/16 07:19:31;;;;;;;7.78;5.45;;;;;;;;;;4933701;29;20062;-79
2023/03/16 07:22:02;;;;;;;6.53;5.50;;;;;;;;;;4929712;29;20074;-79
2023/03/16 07:24:34;;;;;;;8.17;6.10;;;;;;;;;;4950907;28;20071;-78
2023/03/16 07:27:01;;;;;;;9.90;6.95;;;;;;;;;;4936999;29;20047;-79
2023/03/16 07:29:31;;;;;;;7.85;7.05;;;;;;;;;;4931695;29;20067;-79
2023/03/16 07:32:03;;;;;;;7.13;5.55;;;;;;;;;;4937713;29;20433;-79
2023/03/16 07:34:36;;;;;;;9.63;7.13;;;;;;;;;;4934160;29;20405;-79
2023/03/16 07:37:09;;;;;;;9.18;7.10;;;;;;;;;;4950680;29;20047;-79
2023/03/16 07:39:37;;;;;;;7.20;6.30;;;;;;;;;;4937446;29;20055;-79
2023/03/16 07:42:13;;;;;;;8.70;6.63;;;;;;;;;;4919764;29;20054;-79
2023/03/16 07:45:02;;;;;;;7.50;6.80;;;;;;;;;;4948475;28;20497;-79
2023/03/16 07:47:30;;;;;;;9.23;8.27;;;;;;;;;;4929152;29;20051;-79
2023/03/16 07:50:01;;;;;;;8.52;6.22;;;;;;;;;;4947147;28;20051;-79
2023/03/16 07:52:32;;;;;;;7.95;6.32;;;;;;;;;;4948193;28;20067;-79
2023/03/16 07:55:00;;;;;;;7.65;5.68;;;;;;;;;;4946795;29;20048;-79
2023/03/16 07:57:27;;;;;;;8.25;6.82;;;;;;;;;;4937063;29;20052;-79
2023/03/16 07:59:54;;;;;;;10.02;7.28;;;;;;;;;;4935011;29;20051;-79
2023/03/16 08:02:21;;;;;;;7.88;7.03;;;;;;;;;;4929361;29;20059;-79
2023/03/16 08:04:51;;;;;;;8.80;7.32;;;;;;;;;;4949369;29;20417;-79
2023/03/16 08:07:19;;;;;;;7.70;6.82;;;;;;;;;;4945304;29;20063;-79
2023/03/16 08:10:12;;;;;;;11.23;8.13;;;;;;;;;;4932659;29;20047;-79
2023/03/16 08:12:45;;;;;;;9.05;6.97;;;;;;;;;;4933743;29;20048;-80
2023/03/16 08:15:14;;;;;;;9.80;8.00;;;;;;;;;;4932769;29;20044;-79
2023/03/16 08:17:41;;;;;;;8.70;7.35;;;;;;;;;;4930744;29;20044;-79
2023/03/16 08:20:15;;;;;;;;;;;;;;;;;;4948290;28;20082;-79
2023/03/16 08:22:45;;;;;;;9.73;6.95;;;;;;;;;;4919818;29;20369;-79
2023/03/16 08:25:15;;;;;;;8.88;7.97;;;;;;;;;;4934956;29;20509;-79
2023/03/16 08:27:52;;;;;;;8.57;7.65;;;;;;;;;;4932591;29;20043;-79
2023/03/16 08:30:22;;;;;;;8.32;7.15;;;;;;;;;;4949002;28;20044;-79
2023/03/16 08:33:02;;;;;;;10.48;7.10;;;;;;;;;;4925220;29;20048;-79
2023/03/16 08:35:30;;;;;;;9.05;7.72;;;;;;;;;;4950228;29;20410;-79
2023/03/16 08:37:58;;;;;;;10.35;8.02;;;;;;;;;;4932560;29;20051;-79
2023/03/16 08:40:29;;;;;;;8.63;7.70;;;;;;;;;;4950015;28;20059;-79
2023/03/16 08:43:00;;;;;;;10.57;8.07;;;;;;;;;;4931923;29;20055;-81
2023/03/16 08:45:27;;;;;;;9.82;6.90;;;;;;;;;;4933280;29;20060;-81
2023/03/16 08:47:57;;;;;;;8.98;7.88;;;;;;;;;;4938366;29;20047;-79
2023/03/16 08:50:26;;;;;;;9.02;7.15;;;;;;;;;;4937321;29;20050;-79
2023/03/16 08:52:53;;;;;;;9.77;7.25;;;;;;;;;;4938099;29;20048;-80
2023/03/16 08:55:20;;;;;;;7.85;6.78;;;;;;;;;;4950672;29;20053;-80
2023/03/16 08:57:49;;;;;;;8.23;7.32;;;;;;;;;;4927542;29;20079;-79
2023/03/16 09:00:19;;;;;;;11.73;6.90;;;;;;;;;;4935553;29;20054;-79
2023/03/16 09:02:47;;;;;;;7.90;5.72;;;;;;;;;;4934143;29;20055;-80
2023/03/16 09:05:14;;;;;;;8.30;6.65;;;;;;;;;;4932050;29;20067;-80
2023/03/16 09:07:42;;;;;;;6.85;6.18;;;;;;;;;;4932535;29;20055;-80
2023/03/16 09:10:15;;;;;;;10.73;7.40;;;;;;;;;;4932525;29;20054;-80
2023/03/16 09:12:43;;;;;;;11.18;7.68;;;;;;;;;;4931958;29;20451;-79
2023/03/16 09:15:13;;;;;;;7.57;6.32;;;;;;;;;;4935333;29;20063;-79
2023/03/16 09:17:45;;;;;;;8.77;6.65;;;;;;;;;;4946240;28;20446;-79
2023/03/16 09:20:15;;;;;;;10.13;7.38;;;;;;;;;;4933288;29;20048;-78
2023/03/16 09:22:42;;;;;;;9.30;6.88;;;;;;;;;;4943827;28;20056;-79
2023/03/16 09:25:11;;;;;;;9.20;6.43;;;;;;;;;;4928227;29;20051;-78
2023/03/16 09:27:41;;;;;;;7.47;6.00;;;;;;;;;;4929723;29;20048;-79
2023/03/16 09:30:10;;;;;;;7.60;6.07;;;;;;;;;;4949587;23;20493;-77
2023/03/16 09:32:41;;;;;;;7.95;6.18;;;;;;;;;;4964726;28;20044;-77
2023/03/16 09:35:10;;;;;;;8.05;7.15;;;;;;;;;;4953573;29;20059;-77
2023/03/16 09:37:40;;;;;;;6.85;5.70;;;;;;;;;;4957199;28;20051;-78
2023/03/16 09:40:20;;;;;;;7.68;6.53;;;;;;;;;;4949047;28;20051;-77
2023/03/16 09:42:53;;;;;;;8.23;5.95;;;;;;;;;;4935365;29;20058;-77
2023/03/16 09:45:27;;;;;;;7.57;5.47;;;;;;;;;;4931589;28;20429;-77
2023/03/16 09:47:58;;;;;;;7.95;5.53;;;;;;;;;;4964491;28;20044;-78
2023/03/16 09:50:28;;;;;;;8.30;5.95;;;;;;;;;;4966462;28;20398;-78
2023/03/16 09:53:03;;;;;;;5.82;5.22;;;;;;;;;;4952676;29;20066;-78
2023/03/16 09:55:32;;;;;;;7.28;5.63;;;;;;;;;;4948744;28;20518;-78
2023/03/16 09:58:00;;;;;;;7.35;5.97;;;;;;;;;;4952423;28;20066;-78
2023/03/16 10:00:31;;;;;;;6.28;5.32;;;;;;;;;;4946784;28;20568;-78
2023/03/16 10:03:12;;;;;;;8.32;6.68;;;;;;;;;;4947918;29;20058;-78
2023/03/16 10:05:40;;;;;;;6.88;5.90;;;;;;;;;;4932902;29;20060;-80
2023/03/16 10:08:14;;;;;;;6.68;5.80;;;;;;;;;;4934602;29;20052;-78
2023/03/16 10:11:13;;;;;;;9.48;6.75;;;;;;;;;;4945779;28;20402;-78
2023/03/16 10:13:47;;;;;;;7.93;6.57;;;;;;;;;;4941209;29;20654;-78
2023/03/16 10:16:19;;;;;;;6.22;5.55;;;;;;;;;;4946686;28;20114;-78
2023/03/16 10:18:51;;;;;;;11.13;6.78;;;;;;;;;;4948836;28;20055;-78
2023/03/16 10:21:19;;;;;;;9.02;6.57;;;;;;;;;;4947841;28;20430;-78
2023/03/16 10:23:47;;;;;;;9.07;6.43;;;;;;;;;;4948881;28;20055;-78
2023/03/16 10:26:18;;;;;;;10.02;6.50;;;;;;;;;;4952292;29;20050;-79
2023/03/16 10:28:46;;;;;;;5.95;4.78;;;;;;;;;;4947159;28;20059;-78
2023/03/16 10:31:19;;;;;;;5.95;5.07;;;;;;;;;;4949207;28;20051;-78
2023/03/16 10:33:49;;;;;;;6.03;4.97;;;;;;;;;;4944158;28;20043;-78
2023/03/16 10:36:24;;;;;;;6.10;5.50;;;;;;;;;;4966252;28;20074;-78
2023/03/16 10:38:54;;;;;;;8.38;6.32;;;;;;;;;;4950232;28;20047;-78
2023/03/16 10:41:27;;;;;;;5.93;5.32;;;;;;;;;;4946900;28;20410;-78
2023/03/16 10:43:57;;;;;;;7.55;5.93;;;;;;;;;;4948402;28;20392;-78
2023/03/16 10:46:27;;;;;;;6.97;5.30;;;;;;;;;;4955230;28;20062;-78
2023/03/16 10:49:00;;;;;;;6.38;5.28;;;;;;;;;;4952586;28;20062;-78
2023/03/16 10:51:29;;;;;;;7.78;5.63;;;;;;;;;;4933445;29;20052;-78
2023/03/16 10:54:09;;;;;;;6.13;4.93;;;;;;;;;;4955320;28;20055;-77
2023/03/16 10:56:36;;;;;;;7.18;5.95;;;;;;;;;;4952723;28;20500;-78
2023/03/16 10:59:16;;;;;;;7.65;5.53;;;;;;;;;;4944396;28;20043;-78
2023/03/16 11:01:48;;;;;;;6.50;5.53;;;;;;;;;;4953079;28;20677;-78
2023/03/16 11:04:19;;;;;;;7.20;5.45;;;;;;;;;;4954079;29;20445;-78
2023/03/16 11:06:53;;;;;;;6.70;5.78;;;;;;;;;;4947075;28;20051;-78
2023/03/16 11:09:23;;;;;;;8.82;4.93;;;;;;;;;;4951936;28;20051;-78
2023/03/16 11:11:53;;;;;;;7.03;4.45;;;;;;;;;;4953271;28;20051;-78
2023/03/16 11:14:23;;;;;;;8.13;5.70;;;;;;;;;;4952846;28;20047;-78
2023/03/16 11:17:01;;;;;;;7.13;5.15;;;;;;;;;;4934812;29;20529;-77
2023/03/16 11:19:34;;;;;;;6.55;5.65;;;;;;;;;;4949637;28;20044;-78
2023/03/16 11:22:06;;;;;;;11.45;4.68;;;;;;;;;;4930370;29;20418;-78
2023/03/16 11:24:45;;;;;;;5.28;4.35;;;;;;;;;;4945612;28;20090;-78
2023/03/16 11:27:18;;;;;;;5.70;4.93;;;;;;;;;;4948387;28;20043;-78
2023/03/16 11:29:59;;;;;;;11.20;6.80;;;;;;;;;;4952167;28;20070;-78
2023/03/16 11:32:29;;;;;;;7.05;4.95;;;;;;;;;;4952905;28;20051;-78
2023/03/16 11:35:12;;;;;;;5.40;4.43;;;;;;;;;;4947405;28;20413;-78
2023/03/16 11:37:49;;;;;;;8.45;4.68;;;;;;;;;;4954446;28;20062;-78
2023/03/16 11:40:27;;;;;;;7.00;4.88;;;;;;;;;;4930218;29;20510;-78
2023/03/16 11:43:01;;;;;;;6.75;5.22;;;;;;;;;;4951444;28;20063;-78
2023/03/16 11:45:36;;;;;;;6.00;4.75;;;;;;;;;;4948443;28;20062;-79
2023/03/16 11:48:18;;;;;;;7.35;5.30;;;;;;;;;;4930804;29;20047;-78
2023/03/16 11:50:57;;;;;;;6.05;4.85;;;;;;;;;;4961100;28;20043;-78
2023/03/16 11:53:37;;;;;;;6.80;4.82;;;;;;;;;;4966890;28;20062;-80
2023/03/16 11:56:14;;;;;;;6.22;5.28;;;;;;;;;;4961348;28;20402;-79
2023/03/16 11:58:56;;;;;;;5.70;5.05;;;;;;;;;;4949697;28;20043;-77
2023/03/16 12:01:27;;;;;;;6.97;4.85;;;;;;;;;;4952143;28;20063;-78
2023/03/16 12:04:15;;;;;;;4.97;4.38;;;;;;;;;;4952512;29;20509;-78
2023/03/16 12:07:05;;;;;;;5.93;4.47;;;;;;;;;;4948770;28;20055;-78
2023/03/16 12:09:59;;;;;;;7.50;5.10;;;;;;;;;;4952548;28;20054;-79
2023/03/16 12:12:37;;;;;;;9.82;5.22;;;;;;;;;;4924008;28;20063;-79
2023/03/16 12:15:21;;;;;;;6.40;5.60;;;;;;;;;;4947645;28;20055;-79
2023/03/16 12:17:49;;;;;;;;;;;;;;;;;;4932769;29;20074;-78
2023/03/16 12:20:17;;;;;;;;;;;;;;;;;;4948391;28;20330;-79
2023/03/16 12:22:48;;;;;;;;;;;;;;;;;;4938009;28;19929;-78
2023/03/16 12:25:20;;;;;;;;;;;;;;;;;;4947102;28;19923;-78
2023/03/16 12:27:48;;;;;;;;;;;;;;;;;;4950500;28;20490;-79
2023/03/16 12:30:24;;;;;;;;;;;;;;;;;;4947522;28;20385;-78
2023/03/16 12:32:54;;;;;;;;;;;;;;;;;;4965915;28;19934;-78
2023/03/16 12:35:27;;;;;;;;;;;;;;;;;;4936821;29;19923;-78
2023/03/16 12:37:58;;;;;;;;;;;;;;;;;;4938020;28;19923;-79
2023/03/16 12:40:31;;;;;;;;;;;;;;;;;;4949624;28;19922;-78
2023/03/16 12:43:11;;;;;;;;;;;;;;;;;;4948846;28;19922;-79
2023/03/16 12:45:39;;;;;;;;;;;;;;;;;;4951106;28;19938;-78
2023/03/16 12:48:09;;;;;;;;;;;;;;;;;;4950055;28;19922;-78
2023/03/16 12:50:47;;;;;;;;;;;;;;;;;;4952146;28;19929;-78
2023/03/16 12:53:42;;;;;;;;;;;;;;;;;;4933879;29;19923;-78
2023/03/16 12:56:15;;;;;;;;;;;;;;;;;;4963738;28;19934;-78
2023/03/16 12:58:44;;;;;;;;;;;;;;;;;;4943495;28;19923;-78
2023/03/16 13:01:11;;;;;;;;;;;;;;;;;;4949447;28;20422;-78
2023/03/16 13:03:38;;;;;;;;;;;;;;;;;;4944269;28;19922;-79
2023/03/16 13:06:08;;;;;;;;;;;;;;;;;;4949325;28;19923;-79
2023/03/16 13:08:44;;;;;;;;;;;;;;;;;;4948183;28;19948;-79
2023/03/16 13:11:15;;;;;;;;;;;;;;;;;;4952530;29;19929;-79
2023/03/16 13:13:48;;;;;;;;;;;;;;;;;;4939795;29;19930;-79
2023/03/16 13:16:24;;;;;;;;;;;;;;;;;;4923740;29;19923;-79
2023/03/16 13:18:53;;;;;;;;;;;;;;;;;;4945825;29;19930;-79
2023/03/16 13:21:21;;;;;;;;;;;;;;;;;;4953818;29;19922;-79
2023/03/16 13:23:54;;;;;;;;;;;;;;;;;;4934641;29;19927;-79
2023/03/16 13:26:39;;;;;;;;;;;;;;;;;;4969396;28;20296;-79
2023/03/16 13:29:23;;;;;;;;;;;;;;;;;;4952127;29;19922;-79
2023/03/16 13:31:51;;;;;;;;;;;;;;;;;;4952245;28;20384;-78
2023/03/16 13:34:21;;;;;;;;;;;;;;;;;;4952415;29;19923;-78
2023/03/16 13:36:48;;;;;;;;;;;;;;;;;;4953766;29;20296;-78
2023/03/16 13:39:29;;;;;;;;;;;;;;;;;;4952555;29;20300;-78
2023/03/16 13:41:59;;;;;;;;;;;;;;;;;;4951747;29;20385;-78
2023/03/16 13:44:27;;;;;;;;;;;;;;;;;;4921289;29;19922;-79
2023/03/16 13:46:54;;;;;;;;;;;;;;;;;;4947011;29;19930;-79
2023/03/16 13:49:20;;;;;;;;;;;;;;;;;;4952099;29;20573;-78
2023/03/16 13:51:49;;;;;;;;;;;;;;;;;;4934532;29;19926;-79
2023/03/16 13:54:22;;;;;;;;;;;;;;;;;;4947282;29;19922;-78
2023/03/16 13:56:49;;;;;;;;;;;;;;;;;;4953117;29;19922;-79
2023/03/16 13:59:16;;;;;;;;;;;;;;;;;;4933145;29;19942;-79
2023/03/16 14:01:47;;;;;;;;;;;;;;;;;;4966882;28;19922;-78
2023/03/16 14:04:22;;;;;;;;;;;;;;;;;;4950769;29;19929;-78
2023/03/16 14:06:53;;;;;;;;;;;;;;;;;;4953312;29;19934;-79
2023/03/16 14:09:22;;;;;;;;;;;;;;;;;;4933667;29;19922;-78
2023/03/16 14:11:50;;;;;;;;;;;;;;;;;;4948265;29;19938;-79
2023/03/16 14:14:17;;;;;;;;;;;;;;;;;;4947504;29;19930;-79
2023/03/16 14:16:44;;;;;;;;;;;;;;;;;;4953189;28;19929;-79
2023/03/16 14:19:16;;;;;;;;;;;;;;;;;;4940882;29;19922;-78
2023/03/16 14:21:44;;;;;;;;;;;;;;;;;;4955870;29;19922;-78
2023/03/16 14:24:14;;;;;;;;;;;;;;;;;;4949157;29;20409;-79
2023/03/16 14:26:48;;;;;;;;;;;;;;;;;;4941228;29;19923;-79
2023/03/16 14:29:23;;;;;;;;;;;;;;;;;;4942740;29;19937;-79
2023/03/16 14:31:53;;;;;;;;;;;;;;;;;;4951206;29;19930;-79
2023/03/16 14:34:21;;;;;;;;;;;;;;;;;;4952175;29;19929;-79
2023/03/16 14:36:48;;;;;;;;;;;;;;;;;;4957747;29;19922;-79
2023/03/16 14:39:16;;;;;;;;;;;;;;;;;;4955592;29;19933;-79
2023/03/16 14:41:44;;;;;;;;;;;;;;;;;;4938791;29;20404;-79
2023/03/16 14:44:18;;;;;;;;;;;;;;;;;;4956208;29;19926;-79
2023/03/16 14:46:47;;;;;;;;;;;;;;;;;;4954064;29;19922;-79
2023/03/16 14:49:18;;;;;;;;;;;;;;;;;;4949370;29;19922;-78
2023/03/16 14:51:51;;;;;;;;;;;;;;;;;;4964700;28;19922;-79
2023/03/16 14:54:20;;;;;;;;;;;;;;;;;;4950006;28;19931;-78
2023/03/16 14:56:47;;;;;;;;;;;;;;;;;;4966964;28;19922;-78
2023/03/16 14:59:21;;;;;;;;;;;;;;;;;;4945680;29;19922;-78
2023/03/16 15:01:49;;;;;;;;;;;;;;;;;;4940013;29;19923;-79
2023/03/16 15:04:18;;;;;;;;;;;;;;;;;;4953289;29;19930;-78
2023/03/16 15:06:46;;;;;;;;;;;;;;;;;;4946330;29;19922;-79
2023/03/16 15:09:18;;;;;;;;;;;;;;;;;;4939136;29;19931;-79
2023/03/16 15:11:47;;;;;;;;;;;;;;;;;;4949317;29;19926;-79
2023/03/16 15:15:14;;;;;;;;;;;;;;;;;;4950604;29;20439;-79
2023/03/16 15:17:03;;;;;;;;;;;;;;;;;;4956358;29;19926;-79
2023/03/16 15:19:30;;;;;;;;;;;;;;;;;;4949684;29;19930;-79